Time;durP1;ratioP1;P1;durP2;ratioP2;P2;SDS_P1;SDS_P2;PMS_P1;PMS_P2;Temp;Humidity;BMP_temperature;BMP_pressure;BME280_temperature;BME280_humidity;BME280_pressure;Samples;Min_cycle;Max_cycle;Signal;HPM_P1;HPM_P2
2021/12/10 00:01:52;;;;;;;52.38;24.90;;;;;;;3.22;100.00;99785.84;5008744;28;20042;-72
2021/12/10 00:04:20;;;;;;;65.22;25.70;;;;;;;3.29;100.00;99775.56;4977706;28;20033;-72
2021/12/10 00:06:53;;;;;;;51.22;24.48;;;;;;;3.30;100.00;99760.19;4996393;28;20049;-73
2021/12/10 00:09:24;;;;;;;54.95;24.20;;;;;;;3.35;100.00;99769.03;4995577;28;20237;-72
2021/12/10 00:11:54;;;;;;;49.83;23.85;;;;;;;3.24;100.00;99755.94;4996468;28;20065;-72
2021/12/10 00:14:25;;;;;;;52.28;23.65;;;;;;;3.23;100.00;99751.59;4996714;28;20507;-72
2021/12/10 00:16:52;;;;;;;46.47;22.35;;;;;;;3.20;100.00;99744.09;5002264;28;20370;-72
2021/12/10 00:19:30;;;;;;;54.45;22.58;;;;;;;3.18;100.00;99747.88;5002948;28;20699;-73
2021/12/10 00:21:57;;;;;;;51.97;23.02;;;;;;;2.93;100.00;99738.09;5003189;28;20046;-72
2021/12/10 00:24:26;;;;;;;55.83;22.98;;;;;;;2.91;100.00;99736.78;5002581;28;20286;-72
2021/12/10 00:26:52;;;;;;;51.78;24.00;;;;;;;2.91;100.00;99737.59;5021306;28;20041;-72
2021/12/10 00:29:19;;;;;;;50.42;22.85;;;;;;;2.92;100.00;99738.38;5022592;28;20049;-72
2021/12/10 00:32:01;;;;;;;52.00;22.40;;;;;;;2.99;100.00;99733.47;5023049;28;20053;-73
2021/12/10 00:34:37;;;;;;;58.47;23.58;;;;;;;2.93;100.00;99723.81;5021984;28;20432;-73
2021/12/10 00:37:06;;;;;;;54.40;22.83;;;;;;;2.84;100.00;99712.84;5022215;28;20080;-73
2021/12/10 00:39:39;;;;;;;53.45;21.67;;;;;;;2.92;100.00;99716.84;5021737;28;20052;-72
2021/12/10 00:42:10;;;;;;;58.75;22.85;;;;;;;2.79;100.00;99701.31;5004011;28;20519;-73
2021/12/10 00:44:36;;;;;;;53.85;20.88;;;;;;;2.69;100.00;99699.50;5021691;28;20065;-73
2021/12/10 00:47:02;;;;;;;44.83;21.30;;;;;;;2.59;100.00;99699.53;5022160;28;20041;-72
2021/12/10 00:49:27;;;;;;;54.78;21.40;;;;;;;2.56;100.00;99698.25;5022519;28;20055;-72
2021/12/10 00:51:53;;;;;;;53.05;21.92;;;;;;;2.64;100.00;99694.13;5003858;28;20451;-72
2021/12/10 00:54:19;;;;;;;47.40;20.50;;;;;;;2.59;100.00;99691.47;5003949;28;20041;-73
2021/12/10 00:56:45;;;;;;;48.55;22.00;;;;;;;2.42;100.00;99691.84;5022598;28;20049;-73
2021/12/10 00:59:12;;;;;;;52.33;20.85;;;;;;;2.46;100.00;99685.63;5022726;28;20055;-73
2021/12/10 01:01:39;;;;;;;45.78;20.17;;;;;;;2.51;100.00;99684.00;5020344;28;20052;-73
2021/12/10 01:04:10;;;;;;;53.53;21.65;;;;;;;2.32;100.00;99686.53;5022711;28;20407;-72
2021/12/10 01:06:38;;;;;;;53.80;21.42;;;;;;;2.35;100.00;99677.88;5004671;28;20056;-72
2021/12/10 01:09:11;;;;;;;59.70;20.23;;;;;;;2.30;100.00;99672.53;5022769;28;20065;-73
2021/12/10 01:11:48;;;;;;;55.40;21.50;;;;;;;2.33;100.00;99663.91;5022413;28;20056;-73
2021/12/10 01:14:24;;;;;;;54.90;21.13;;;;;;;2.36;100.00;99666.06;5021815;28;20072;-72
2021/12/10 01:25:23;;;;;;;47.97;20.95;;;;;;;2.28;100.00;99648.63;5021880;28;20045;-73
2021/12/10 01:27:49;;;;;;;50.97;20.02;;;;;;;2.42;100.00;99640.75;5018195;28;20044;-73
2021/12/10 01:30:25;;;;;;;48.63;19.88;;;;;;;2.43;100.00;99645.03;5000925;28;20697;-73
2021/12/10 01:33:09;;;;;;;43.47;19.73;;;;;;;2.43;100.00;99640.44;5018245;28;20120;-73
2021/12/10 01:35:42;;;;;;;42.47;18.73;;;;;;;2.42;100.00;99632.66;5018237;28;20672;-73
2021/12/10 01:38:09;;;;;;;45.35;18.95;;;;;;;2.41;100.00;99637.22;5000052;28;20084;-73
2021/12/10 01:40:38;;;;;;;44.45;18.90;;;;;;;2.46;100.00;99641.78;5019023;28;20057;-73
2021/12/10 01:43:07;;;;;;;51.85;19.65;;;;;;;2.29;100.00;99639.44;5001025;28;20421;-73
2021/12/10 01:45:44;;;;;;;47.10;20.48;;;;;;;2.31;100.00;99634.59;5018687;28;20435;-75
2021/12/10 01:48:13;;;;;;;43.05;19.00;;;;;;;2.38;100.00;99624.31;5018943;28;20218;-73
2021/12/10 01:50:38;;;;;;;49.83;19.30;;;;;;;2.31;100.00;99617.66;5018948;28;20037;-72
2021/12/10 01:53:08;;;;;;;42.58;18.15;;;;;;;2.31;100.00;99618.47;5003241;28;20487;-73
2021/12/10 01:55:39;;;;;;;38.42;17.48;;;;;;;2.40;100.00;99607.91;5018578;28;20132;-73
2021/12/10 01:58:07;;;;;;;45.72;18.17;;;;;;;2.31;100.00;99605.00;5000977;28;20049;-72
2021/12/10 02:00:37;;;;;;;35.25;17.13;;;;;;;2.33;100.00;99602.03;5018503;28;20076;-73
2021/12/10 02:03:03;;;;;;;37.38;17.90;;;;;;;2.26;100.00;99592.38;5018149;28;20056;-73
2021/12/10 02:05:29;;;;;;;37.45;17.05;;;;;;;2.28;100.00;99588.63;5000046;28;20452;-73
2021/12/10 02:07:54;;;;;;;40.28;17.85;;;;;;;2.23;100.00;99587.56;5000744;28;20055;-73
2021/12/10 02:10:24;;;;;;;43.22;17.83;;;;;;;2.26;100.00;99592.38;5000262;28;20450;-73
2021/12/10 02:12:50;;;;;;;41.78;19.00;;;;;;;2.25;100.00;99585.41;5018553;28;20109;-75
2021/12/10 02:15:16;;;;;;;38.42;16.60;;;;;;;2.20;100.00;99579.25;5019211;28;20058;-73
2021/12/10 02:17:46;;;;;;;33.38;17.45;;;;;;;2.17;100.00;99577.94;5019416;28;20045;-73
2021/12/10 02:20:22;;;;;;;32.45;16.40;;;;;;;2.23;100.00;99581.41;5019311;28;20052;-73
2021/12/10 02:22:49;;;;;;;42.65;18.10;;;;;;;2.18;100.00;99567.97;5018795;28;20450;-73
2021/12/10 02:25:28;;;;;;;34.35;15.85;;;;;;;2.12;100.00;99569.88;5018517;28;20049;-74
2021/12/10 02:27:54;;;;;;;40.25;18.63;;;;;;;2.13;100.00;99558.06;5018484;28;20437;-73
2021/12/10 02:30:23;;;;;;;40.70;17.92;;;;;;;2.09;100.00;99558.88;5018562;28;20075;-73
2021/12/10 02:32:48;;;;;;;37.72;15.63;;;;;;;2.07;100.00;99547.63;4996881;28;20046;-73
2021/12/10 02:35:15;;;;;;;38.30;15.70;;;;;;;2.10;100.00;99539.81;4998313;28;20275;-73
2021/12/10 02:37:43;;;;;;;32.70;16.02;;;;;;;1.98;100.00;99532.09;4997530;28;20481;-73
2021/12/10 02:40:10;;;;;;;41.80;16.95;;;;;;;1.97;100.00;99529.66;4997680;28;20041;-73
2021/12/10 02:42:36;;;;;;;35.17;16.77;;;;;;;1.98;100.00;99531.28;4998377;28;20057;-73
2021/12/10 02:45:05;;;;;;;36.83;15.13;;;;;;;1.91;100.00;99523.50;4997997;28;20045;-73
2021/12/10 02:47:31;;;;;;;31.88;14.32;;;;;;;1.89;100.00;99520.31;4997943;28;20124;-73
2021/12/10 02:49:56;;;;;;;37.58;13.65;;;;;;;1.82;100.00;99511.75;4997571;28;20184;-73
2021/12/10 02:52:24;;;;;;;36.95;14.60;;;;;;;1.85;100.00;99505.00;4998087;28;20547;-73
2021/12/10 02:54:49;;;;;;;32.47;14.45;;;;;;;1.81;100.00;99508.25;4998068;28;20112;-73
2021/12/10 02:57:17;;;;;;;35.38;16.17;;;;;;;1.79;100.00;99496.19;4998154;28;20045;-73
2021/12/10 02:59:43;;;;;;;33.17;15.48;;;;;;;1.78;100.00;99495.38;4998332;28;20038;-73
2021/12/10 03:02:13;;;;;;;28.92;15.27;;;;;;;1.78;100.00;99495.38;5006417;28;20459;-73
2021/12/10 03:04:40;;;;;;;28.70;14.77;;;;;;;1.72;100.00;99496.50;5018842;28;20041;-73
2021/12/10 03:07:13;;;;;;;28.48;14.88;;;;;;;1.74;100.00;99478.19;5019032;28;20540;-73
2021/12/10 03:09:41;;;;;;;29.08;14.63;;;;;;;1.73;100.00;99471.22;5019327;28;20068;-73
2021/12/10 03:12:08;;;;;;;32.67;14.23;;;;;;;1.70;100.00;99471.78;5019228;28;20410;-73
2021/12/10 03:14:36;;;;;;;29.58;12.85;;;;;;;1.75;100.00;99465.56;5018718;28;20033;-72
2021/12/10 03:17:07;;;;;;;25.10;12.75;;;;;;;1.73;100.00;99465.03;5019111;28;20123;-72
2021/12/10 03:19:33;;;;;;;35.55;14.50;;;;;;;1.75;100.00;99462.88;5001422;28;20270;-73
2021/12/10 03:21:59;;;;;;;25.60;13.65;;;;;;;1.75;100.00;99447.56;5019671;28;20117;-73
2021/12/10 03:24:27;;;;;;;25.77;11.68;;;;;;;1.69;100.00;99447.88;5019713;28;20073;-73
2021/12/10 03:26:54;;;;;;;28.58;11.77;;;;;;;1.80;100.00;99436.78;5018849;28;20037;-73
2021/12/10 03:29:22;;;;;;;20.63;10.10;;;;;;;1.87;100.00;99427.59;5020491;28;20052;-74
2021/12/10 03:31:48;;;;;;;24.45;11.85;;;;;;;1.90;100.00;99424.34;5019626;28;20132;-73
2021/12/10 03:34:14;;;;;;;21.05;10.00;;;;;;;1.97;100.00;99427.50;5018636;28;20080;-73
2021/12/10 03:36:45;;;;;;;22.67;11.48;;;;;;;1.99;100.00;99425.34;5019194;28;20124;-71
2021/12/10 03:39:14;;;;;;;20.80;9.98;;;;;;;2.04;100.00;99433.38;5020022;28;20242;-72
2021/12/10 03:41:40;;;;;;;23.38;11.40;;;;;;;2.08;100.00;99426.34;5019754;28;20045;-72
2021/12/10 03:44:05;;;;;;;22.05;10.80;;;;;;;2.01;100.00;99423.19;5020306;28;20071;-72
2021/12/10 03:46:31;;;;;;;26.48;10.10;;;;;;;2.05;100.00;99416.16;5020677;28;20264;-72
2021/12/10 03:48:56;;;;;;;17.23;9.32;;;;;;;1.90;100.00;99417.06;5020793;28;20037;-72
2021/12/10 03:51:24;;;;;;;23.30;11.18;;;;;;;1.98;100.00;99404.94;5019929;28;20049;-72
2021/12/10 03:53:51;;;;;;;19.88;9.88;;;;;;;1.93;100.00;99402.28;5021058;28;20132;-72
2021/12/10 03:56:20;;;;;;;17.13;8.98;;;;;;;1.92;100.00;99397.97;5020801;28;20892;-71
2021/12/10 03:58:47;;;;;;;23.85;9.20;;;;;;;1.98;100.00;99392.28;5020554;28;20060;-73
2021/12/10 04:01:15;;;;;;;22.23;8.02;;;;;;;2.02;100.00;99382.56;5004732;28;20132;-72
2021/12/10 04:03:47;;;;;;;22.98;9.02;;;;;;;2.02;100.00;99384.44;5020754;28;20048;-72
2021/12/10 04:06:13;;;;;;;31.08;10.98;;;;;;;2.08;100.00;99386.00;5020907;28;20080;-72
2021/12/10 04:08:39;;;;;;;18.52;9.85;;;;;;;2.02;100.00;99379.88;5021334;28;20040;-72
2021/12/10 04:11:06;;;;;;;21.83;11.00;;;;;;;2.08;100.00;99385.22;5021381;28;20045;-72
2021/12/10 04:13:31;;;;;;;27.10;11.50;;;;;;;2.08;100.00;99377.94;5021604;28;20136;-72
2021/12/10 04:15:57;;;;;;;28.75;11.80;;;;;;;2.07;100.00;99376.34;5022519;28;20124;-72
2021/12/10 04:18:22;;;;;;;28.38;10.60;;;;;;;2.13;100.00;99379.78;5003437;28;20574;-72
2021/12/10 04:20:48;;;;;;;22.92;10.30;;;;;;;2.12;100.00;99370.09;5021744;28;20049;-72
2021/12/10 04:23:18;;;;;;;23.48;9.73;;;;;;;2.07;100.00;99368.28;5021140;28;20393;-72
2021/12/10 04:25:43;;;;;;;23.52;9.07;;;;;;;2.14;100.00;99366.03;5021411;28;20343;-72
2021/12/10 04:28:13;;;;;;;28.33;11.38;;;;;;;2.11;100.00;99363.13;5003288;28;20041;-72
2021/12/10 04:30:42;;;;;;;32.20;11.68;;;;;;;2.09;100.00;99355.31;5021512;28;20053;-72
2021/12/10 04:33:12;;;;;;;24.80;11.00;;;;;;;2.03;100.00;99353.78;5021634;28;20053;-73
2021/12/10 04:35:38;;;;;;;22.27;10.00;;;;;;;2.03;100.00;99348.41;5017453;28;20441;-72
2021/12/10 04:38:04;;;;;;;23.27;10.23;;;;;;;2.04;100.00;99339.25;5002047;28;20504;-72
2021/12/10 04:40:30;;;;;;;31.00;9.68;;;;;;;2.02;100.00;99333.38;5006163;28;20033;-72
2021/12/10 04:42:56;;;;;;;28.23;11.10;;;;;;;2.02;100.00;99342.22;5021548;28;20060;-72
2021/12/10 04:45:21;;;;;;;29.05;11.75;;;;;;;2.01;100.00;99342.53;5021571;28;20042;-72
2021/12/10 04:47:48;;;;;;;27.40;9.60;;;;;;;2.01;100.00;99337.16;5022420;28;20049;-72
2021/12/10 04:50:16;;;;;;;26.30;10.13;;;;;;;2.01;100.00;99323.69;5020887;28;20049;-73
2021/12/10 04:52:42;;;;;;;24.67;10.43;;;;;;;1.99;100.00;99328.56;5021826;28;20465;-74
2021/12/10 04:55:10;;;;;;;27.23;10.88;;;;;;;2.01;100.00;99321.00;5018297;28;20044;-72
2021/12/10 04:57:36;;;;;;;23.17;9.13;;;;;;;2.08;100.00;99318.78;5020413;28;20041;-73
2021/12/10 05:00:06;;;;;;;20.92;9.32;;;;;;;2.07;100.00;99303.75;5021982;28;20052;-73
2021/12/10 05:02:33;;;;;;;24.38;9.88;;;;;;;2.02;100.00;99309.97;5023882;28;20556;-72
2021/12/10 05:04:59;;;;;;;25.65;10.55;;;;;;;2.02;100.00;99306.47;5008173;28;20045;-73
2021/12/10 05:07:29;;;;;;;32.92;8.93;;;;;;;2.03;100.00;99303.50;5023192;28;20057;-73
2021/12/10 05:09:55;;;;;;;31.92;8.77;;;;;;;2.06;100.00;99291.38;5045718;28;20056;-72
2021/12/10 05:12:21;;;;;;;18.02;7.93;;;;;;;2.06;100.00;99283.31;5045644;28;20060;-73
2021/12/10 05:14:46;;;;;;;23.13;7.68;;;;;;;2.02;100.00;99279.59;5025994;28;20041;-73
2021/12/10 05:17:12;;;;;;;22.15;8.07;;;;;;;2.03;100.00;99270.44;5009137;28;20501;-73
2021/12/10 05:19:39;;;;;;;20.95;6.88;;;;;;;1.92;100.00;99268.94;5013356;28;20384;-73
2021/12/10 05:22:08;;;;;;;23.30;9.90;;;;;;;1.99;100.00;99258.66;5007849;28;20038;-72
2021/12/10 05:24:34;;;;;;;15.65;7.47;;;;;;;1.93;100.00;99254.44;5007359;28;20387;-73
2021/12/10 05:27:00;;;;;;;20.25;8.18;;;;;;;1.95;100.00;99254.91;5027607;28;20030;-73
2021/12/10 05:29:27;;;;;;;25.48;9.13;;;;;;;1.91;100.00;99256.59;5026792;28;20153;-73
2021/12/10 05:31:55;;;;;;;19.83;8.40;;;;;;;1.91;100.00;99256.59;5027330;28;20143;-72
2021/12/10 05:34:20;;;;;;;22.70;9.27;;;;;;;1.83;100.00;99251.81;5026903;28;20087;-73
2021/12/10 05:36:46;;;;;;;23.70;9.15;;;;;;;1.85;100.00;99257.72;5027797;28;20474;-72
2021/12/10 05:39:14;;;;;;;27.75;8.82;;;;;;;1.80;100.00;99253.19;5027899;28;20037;-75
2021/12/10 05:41:39;;;;;;;19.85;8.60;;;;;;;1.78;100.00;99242.75;5028539;28;20036;-73
2021/12/10 05:44:05;;;;;;;25.48;8.68;;;;;;;1.77;100.00;99243.81;5029287;28;20049;-72
2021/12/10 05:46:31;;;;;;;22.55;8.40;;;;;;;1.77;100.00;99241.13;5029292;28;20048;-73
2021/12/10 05:48:57;;;;;;;19.15;8.45;;;;;;;1.78;100.00;99232.00;5030108;28;20044;-74
2021/12/10 05:51:23;;;;;;;25.90;8.18;;;;;;;1.77;100.00;99230.38;5020253;28;20049;-72
2021/12/10 05:53:49;;;;;;;18.58;7.57;;;;;;;1.73;100.00;99234.72;5030339;28;20045;-73
2021/12/10 05:56:15;;;;;;;19.73;7.30;;;;;;;1.72;100.00;99227.75;5030733;28;20207;-73
2021/12/10 05:58:41;;;;;;;15.77;5.82;;;;;;;1.63;100.00;99223.28;5029090;28;20037;-73
2021/12/10 06:01:10;;;;;;;12.77;6.53;;;;;;;1.70;100.00;99219.19;5030223;28;20045;-72
2021/12/10 06:03:39;;;;;;;15.90;6.20;;;;;;;1.64;100.00;99220.31;5008349;28;20092;-73
2021/12/10 06:06:06;;;;;;;17.92;5.90;;;;;;;1.62;100.00;99219.78;5028402;28;20049;-73
2021/12/10 06:08:32;;;;;;;19.73;6.68;;;;;;;1.58;100.00;99216.06;5028905;28;20037;-73
2021/12/10 06:10:59;;;;;;;14.68;5.88;;;;;;;1.48;100.00;99216.16;5030549;28;20072;-73
2021/12/10 06:13:25;;;;;;;16.73;6.38;;;;;;;1.54;100.00;99220.41;5020670;28;20046;-72
2021/12/10 06:15:51;;;;;;;9.00;5.13;;;;;;;1.46;100.00;99205.72;5004708;28;20037;-73
2021/12/10 06:18:17;;;;;;;22.63;7.60;;;;;;;1.49;100.00;99205.16;5015196;28;20094;-72
2021/12/10 06:20:46;;;;;;;16.17;6.53;;;;;;;1.52;100.00;99203.78;5016227;28;20037;-73
2021/12/10 06:23:12;;;;;;;19.80;6.25;;;;;;;1.52;100.00;99193.03;5021744;28;20056;-73
2021/12/10 06:25:38;;;;;;;18.33;6.40;;;;;;;1.53;100.00;99197.31;5020405;28;20088;-73
2021/12/10 06:28:04;;;;;;;16.55;5.55;;;;;;;1.48;100.00;99200.84;5022636;28;20128;-73
2021/12/10 06:30:33;;;;;;;19.45;6.18;;;;;;;1.49;100.00;99196.28;5026209;28;20037;-73
2021/12/10 06:33:01;;;;;;;16.15;5.68;;;;;;;1.44;100.00;99189.06;5032553;28;20499;-73
2021/12/10 06:35:29;;;;;;;15.75;5.53;;;;;;;1.47;100.00;99193.09;5031940;28;20471;-72
2021/12/10 06:37:56;;;;;;;14.45;5.65;;;;;;;1.49;100.00;99190.94;5019964;28;20046;-73
2021/12/10 06:40:24;;;;;;;18.92;6.88;;;;;;;1.59;100.00;99196.19;5010506;28;20069;-73
2021/12/10 06:42:50;;;;;;;16.83;6.88;;;;;;;1.55;100.00;99195.16;5011334;28;20044;-73
2021/12/10 06:45:20;;;;;;;18.67;6.15;;;;;;;1.56;100.00;99189.47;5006454;28;20073;-73
2021/12/10 06:47:48;;;;;;;18.33;6.63;;;;;;;1.62;100.00;99179.50;5007126;28;20050;-73
2021/12/10 06:50:17;;;;;;;12.32;4.65;;;;;;;1.51;100.00;99194.09;5005850;28;20346;-73
2021/12/10 06:52:42;;;;;;;12.18;5.53;;;;;;;1.56;100.00;99186.78;5004763;28;20052;-73
2021/12/10 06:55:08;;;;;;;21.83;6.13;;;;;;;1.50;100.00;99192.50;5005438;28;20038;-74
2021/12/10 06:57:35;;;;;;;13.93;5.53;;;;;;;1.53;100.00;99189.25;5003924;28;20269;-73
2021/12/10 07:00:03;;;;;;;31.00;7.30;;;;;;;1.56;100.00;99186.00;5001624;28;20038;-73
2021/12/10 07:02:29;;;;;;;14.13;5.85;;;;;;;1.64;100.00;99182.69;5011522;28;20249;-73
2021/12/10 07:04:54;;;;;;;25.63;8.40;;;;;;;1.59;100.00;99180.84;5022132;28;20138;-73
2021/12/10 07:07:20;;;;;;;15.95;5.15;;;;;;;1.61;100.00;99180.59;5022809;28;20692;-73
2021/12/10 07:09:46;;;;;;;17.73;5.72;;;;;;;1.62;100.00;99179.50;5003587;28;20045;-74
2021/12/10 07:12:12;;;;;;;19.25;6.07;;;;;;;1.59;100.00;99174.69;5021633;28;20041;-73
2021/12/10 07:14:38;;;;;;;19.60;6.25;;;;;;;1.60;100.00;99176.31;5003889;28;20053;-73
2021/12/10 07:17:03;;;;;;;15.50;5.03;;;;;;;1.61;100.00;99177.91;5021598;28;20041;-74
2021/12/10 07:19:29;;;;;;;10.85;5.25;;;;;;;1.57;100.00;99182.22;5004173;28;20524;-73
2021/12/10 07:21:55;;;;;;;16.25;5.18;;;;;;;1.59;100.00;99174.69;5002165;28;20037;-73
2021/12/10 07:24:21;;;;;;;11.85;5.03;;;;;;;1.52;100.00;99168.88;5000542;28;20025;-74
2021/12/10 07:26:48;;;;;;;12.70;5.65;;;;;;;1.56;100.00;99180.63;5002574;28;20042;-74
2021/12/10 07:29:14;;;;;;;18.30;6.72;;;;;;;1.63;100.00;99181.09;5004228;28;20200;-73
2021/12/10 07:31:42;;;;;;;15.45;5.60;;;;;;;1.54;100.00;99180.09;5005822;28;20034;-73
2021/12/10 07:34:07;;;;;;;14.98;6.65;;;;;;;1.59;100.00;99185.44;5008271;28;20056;-74
2021/12/10 07:36:33;;;;;;;12.40;6.47;;;;;;;1.59;100.00;99190.81;5008632;28;20041;-73
2021/12/10 07:38:59;;;;;;;16.70;5.65;;;;;;;1.54;100.00;99196.22;4999278;28;20049;-73
2021/12/10 07:41:25;;;;;;;22.92;6.47;;;;;;;1.44;100.00;99190.97;4995675;28;20218;-73
2021/12/10 07:43:52;;;;;;;16.77;5.70;;;;;;;1.43;100.00;99181.31;5006310;28;20046;-74
2021/12/10 07:46:17;;;;;;;18.52;6.72;;;;;;;1.52;100.00;99179.59;5010529;28;20646;-73
2021/12/10 07:48:44;;;;;;;15.48;6.32;;;;;;;1.51;100.00;99181.50;5014592;28;20048;-73
2021/12/10 07:51:18;;;;;;;17.67;6.00;;;;;;;1.44;100.00;99182.91;5012484;28;20034;-73
2021/12/10 07:53:44;;;;;;;20.73;6.55;;;;;;;1.50;100.00;99187.16;5009749;28;20038;-73
2021/12/10 07:56:13;;;;;;;20.38;6.82;;;;;;;1.47;100.00;99179.66;5002477;28;20038;-73
2021/12/10 07:58:42;;;;;;;13.10;5.10;;;;;;;1.45;100.00;99189.88;5003600;28;20041;-73
2021/12/10 08:01:11;;;;;;;12.82;6.35;;;;;;;1.60;100.00;99187.06;5002007;28;20149;-73
2021/12/10 08:03:37;;;;;;;13.00;5.97;;;;;;;1.63;100.00;99194.53;5004487;28;20493;-73
2021/12/10 08:06:02;;;;;;;17.15;4.57;;;;;;;1.56;100.00;99194.06;5005296;28;20053;-73
2021/12/10 08:08:28;;;;;;;12.63;5.25;;;;;;;1.66;100.00;99185.91;5004026;28;20030;-73
2021/12/10 08:10:53;;;;;;;18.05;6.13;;;;;;;1.69;100.00;99193.41;5001454;28;20030;-73
2021/12/10 08:13:22;;;;;;;17.80;5.07;;;;;;;1.66;100.00;99193.97;5007124;28;20398;-73
2021/12/10 08:15:48;;;;;;;14.57;6.47;;;;;;;1.74;100.00;99192.53;5007996;28;20509;-73
2021/12/10 08:18:14;;;;;;;13.73;5.65;;;;;;;1.75;100.00;99184.19;4998273;28;20508;-73
2021/12/10 08:20:39;;;;;;;13.43;4.93;;;;;;;1.79;100.00;99190.59;5003920;28;20038;-73
2021/12/10 08:23:05;;;;;;;18.17;6.03;;;;;;;1.85;100.00;99187.84;5011214;28;20092;-73
2021/12/10 08:25:31;;;;;;;21.05;6.60;;;;;;;1.95;100.00;99190.41;5002625;28;20452;-73
2021/12/10 08:27:57;;;;;;;29.88;7.32;;;;;;;2.05;100.00;99192.97;5007904;28;20103;-73
2021/12/10 08:30:25;;;;;;;17.52;6.18;;;;;;;2.05;100.00;99192.97;5005145;28;20042;-72
2021/12/10 08:32:54;;;;;;;13.50;5.18;;;;;;;1.94;100.00;99194.97;5008998;28;20045;-73
2021/12/10 08:35:23;;;;;;;12.77;5.28;;;;;;;2.02;100.00;99183.59;5005764;28;20057;-73
2021/12/10 08:37:50;;;;;;;16.60;5.93;;;;;;;2.06;100.00;99189.19;4996953;28;20479;-72
2021/12/10 08:40:21;;;;;;;12.50;5.20;;;;;;;2.05;100.00;99192.97;5002133;28;20115;-74
2021/12/10 08:42:47;;;;;;;21.08;5.78;;;;;;;2.16;100.00;99194.47;5009983;28;20356;-73
2021/12/10 08:45:13;;;;;;;14.48;5.00;;;;;;;2.09;100.00;99194.00;5007745;28;20457;-73
2021/12/10 08:47:39;;;;;;;11.65;4.88;;;;;;;2.30;100.00;99191.88;5016561;28;20049;-74
2021/12/10 08:50:07;;;;;;;17.35;6.00;;;;;;;2.29;100.00;99189.47;5013081;28;20080;-73
2021/12/10 08:52:33;;;;;;;20.65;6.35;;;;;;;2.33;100.00;99190.47;5009302;28;20045;-73
2021/12/10 08:54:59;;;;;;;17.23;6.40;;;;;;;2.35;100.00;99191.78;5017457;28;20151;-73
2021/12/10 08:57:26;;;;;;;18.33;5.47;;;;;;;2.40;100.00;99199.78;5005449;28;20081;-73
2021/12/10 08:59:53;;;;;;;15.90;5.43;;;;;;;2.34;100.00;99192.88;5006612;28;20044;-73
2021/12/10 09:02:18;;;;;;;8.05;4.55;;;;;;;2.23;100.00;99194.91;5012636;28;20064;-73
2021/12/10 09:04:44;;;;;;;19.98;5.20;;;;;;;2.35;100.00;99197.16;5013186;28;20045;-73
2021/12/10 09:07:16;;;;;;;13.75;5.80;;;;;;;2.42;100.00;99202.22;5015772;28;20625;-73
2021/12/10 09:09:45;;;;;;;11.68;5.25;;;;;;;2.45;100.00;99196.25;5006748;28;20521;-73
2021/12/10 09:12:16;;;;;;;12.00;5.15;;;;;;;2.49;100.00;99200.75;5010306;28;20073;-73
2021/12/10 09:14:47;;;;;;;19.17;5.68;;;;;;;2.55;100.00;99196.09;5010462;28;20584;-73
2021/12/10 09:17:17;;;;;;;18.67;5.75;;;;;;;2.75;100.00;99199.59;5012698;28;20459;-73
2021/12/10 09:19:43;;;;;;;18.55;6.43;;;;;;;2.83;100.00;99196.25;5012951;28;20045;-73
2021/12/10 09:22:09;;;;;;;17.25;5.80;;;;;;;2.70;100.00;99206.63;5008560;28;20041;-73
2021/12/10 09:24:36;;;;;;;15.68;5.07;;;;;;;2.72;100.00;99203.66;5010319;28;20042;-74
2021/12/10 09:27:02;;;;;;;11.20;4.25;;;;;;;2.76;100.00;99201.19;5010899;28;20065;-74
2021/12/10 09:29:35;;;;;;;20.65;5.80;;;;;;;2.95;100.00;99204.66;5016163;28;20117;-73
2021/12/10 09:32:01;;;;;;;19.60;4.65;;;;;;;2.89;100.00;99201.25;5009934;28;20127;-73
2021/12/10 09:34:27;;;;;;;13.00;5.32;;;;;;;3.00;100.00;99203.78;5018467;28;20115;-74
2021/12/10 09:36:53;;;;;;;19.55;6.03;;;;;;;3.10;100.00;99212.50;5019665;28;20172;-73
2021/12/10 09:39:21;;;;;;;16.38;4.28;;;;;;;3.02;100.00;99209.66;5020020;28;20448;-73
2021/12/10 09:41:48;;;;;;;15.65;5.18;;;;;;;3.31;100.00;99207.56;5018999;28;20037;-73
2021/12/10 09:44:15;;;;;;;15.60;3.67;;;;;;;3.20;100.00;99211.53;5020756;28;20085;-73
2021/12/10 09:46:41;;;;;;;14.43;4.60;;;;;;;3.11;100.00;99203.34;5020063;28;20073;-73
2021/12/10 09:49:09;;;;;;;18.40;4.85;;;;;;;3.34;100.00;99208.88;4999847;28;20051;-73
2021/12/10 09:51:40;;;;;;;12.68;5.07;;;;;;;3.23;100.00;99204.75;5018786;28;20045;-73
2021/12/10 09:54:11;;;;;;;12.57;4.68;;;;;;;3.42;100.00;99208.19;5019802;28;20037;-73
2021/12/10 09:56:40;;;;;;;14.45;5.13;;;;;;;3.52;100.00;99204.50;5001354;28;20477;-73
2021/12/10 09:59:05;;;;;;;12.40;5.05;;;;;;;3.35;100.00;99203.19;5020070;28;20499;-73
2021/12/10 10:01:41;;;;;;;15.43;4.22;;;;;;;3.47;100.00;99199.25;5018348;28;20045;-73
2021/12/10 10:04:09;;;;;;;13.93;5.05;;;;;;;3.52;100.00;99202.66;5000763;28;20049;-73
2021/12/10 10:06:39;;;;;;;18.33;5.07;;;;;;;3.59;100.00;99203.03;4997416;28;20062;-74
2021/12/10 10:09:07;;;;;;;11.43;4.25;;;;;;;3.72;100.00;99211.44;4999072;28;20042;-73
2021/12/10 10:11:34;;;;;;;13.98;5.00;;;;;;;3.74;100.00;99203.84;4999611;28;20383;-73
2021/12/10 10:14:01;;;;;;;13.82;4.22;;;;;;;3.88;100.00;99212.75;4998170;28;20042;-73
2021/12/10 10:16:28;;;;;;;11.93;4.55;;;;;;;3.77;100.00;99209.44;4997751;28;20468;-73
2021/12/10 10:18:55;;;;;;;25.30;4.80;;;;;;;3.89;100.00;99205.47;4998846;28;20052;-73
2021/12/10 10:21:27;;;;;;;17.17;4.53;;;;;;;3.85;100.00;99205.28;4999218;28;20760;-73
2021/12/10 10:23:52;;;;;;;10.93;4.90;;;;;;;3.94;100.00;99214.25;4999088;28;20046;-73
2021/12/10 10:26:25;;;;;;;15.55;4.68;;;;;;;4.13;100.00;99210.66;4998225;28;20521;-73
2021/12/10 10:28:52;;;;;;;19.20;4.13;;;;;;;3.98;100.00;99204.44;4998689;28;20038;-73
2021/12/10 10:31:22;;;;;;;17.05;4.10;;;;;;;4.03;100.00;99200.88;4995845;28;20042;-73
2021/12/10 10:33:53;;;;;;;13.05;3.63;;;;;;;4.00;100.00;99202.28;4978198;28;20053;-73
2021/12/10 10:36:23;;;;;;;11.55;4.22;;;;;;;4.17;100.00;99211.66;4978632;28;20061;-74
2021/12/10 10:38:57;;;;;;;13.50;4.70;;;;;;;4.26;100.00;99213.34;4978964;28;20050;-73
2021/12/10 10:41:27;;;;;;;14.75;4.10;;;;;;;4.18;100.00;99210.56;4978667;28;20305;-73
2021/12/10 10:43:54;;;;;;;17.23;4.93;;;;;;;4.27;100.00;99200.66;4978878;28;20046;-73
2021/12/10 10:46:19;;;;;;;12.77;4.22;;;;;;;4.32;100.00;99205.94;4978972;28;20137;-73
2021/12/10 10:48:48;;;;;;;15.95;5.03;;;;;;;4.48;100.00;99204.53;4984338;28;20460;-73
2021/12/10 10:51:18;;;;;;;13.70;3.95;;;;;;;4.52;100.00;99202.81;4998075;28;20044;-73
2021/12/10 10:53:49;;;;;;;18.33;4.47;;;;;;;4.53;100.00;99199.00;4998483;28;20046;-73
2021/12/10 10:56:26;;;;;;;12.30;3.70;;;;;;;4.71;100.00;99193.75;4998508;28;20052;-73
2021/12/10 10:58:56;;;;;;;14.50;4.07;;;;;;;4.66;100.00;99191.19;4996522;28;20558;-73
2021/12/10 11:01:28;;;;;;;16.35;3.95;;;;;;;4.68;100.00;99197.88;4995118;28;20049;-73
2021/12/10 11:04:00;;;;;;;10.93;4.63;;;;;;;4.77;100.00;99192.56;4978539;28;20045;-72
2021/12/10 11:06:36;;;;;;;13.05;4.20;;;;;;;4.83;100.00;99195.91;4987905;28;20128;-72
2021/12/10 11:09:24;;;;;;;15.35;3.72;;;;;;;4.80;100.00;99194.66;4979855;28;20513;-72
2021/12/10 11:12:00;;;;;;;23.88;4.65;;;;;;;4.95;100.00;99193.50;4997477;28;20042;-73
2021/12/10 11:14:32;;;;;;;12.25;3.40;;;;;;;4.88;100.00;99193.09;4979467;28;20053;-73
2021/12/10 11:17:27;;;;;;;9.73;3.70;;;;;;;4.88;100.00;99191.19;4997403;28;20456;-73
2021/12/10 11:20:03;;;;;;;16.88;3.95;;;;;;;5.08;100.00;99195.31;4998154;28;20049;-73
2021/12/10 11:22:28;;;;;;;12.65;3.67;;;;;;;5.07;100.00;99184.81;4998046;28;20050;-72
2021/12/10 11:25:03;;;;;;;16.73;3.35;;;;;;;5.21;100.00;99194.47;4998563;28;20071;-72
2021/12/10 11:27:39;;;;;;;19.48;3.42;;;;;;;5.04;100.00;99190.84;4981769;28;20371;-72
2021/12/10 11:30:22;;;;;;;11.13;3.15;;;;;;;5.14;100.00;99196.00;4980180;28;20054;-72
2021/12/10 11:32:53;;;;;;;8.85;3.75;;;;;;;5.17;100.00;99198.06;4995378;28;20034;-72
2021/12/10 11:35:28;;;;;;;14.13;3.75;;;;;;;5.27;100.00;99192.44;4978301;28;20038;-72